Rechercher aéroport 
image banner adimage banner ad
image banner ad

SVVX - Melia Caribe

Situé à Caraballeda, Venezuela

ICAO - SVVX, IATA -

Données fournies par Airmate  

Information générale

Coordonnées: N10°37'10" W66°58'10"
Élévation : 621 feet MSL.
 
Voir autres Aéroports à Bolívar

Données opérationnelles

Accessible au public
Heure actuelle UTC:
Heure actuelle locale:
METAR: SVMI 261202Z AUTO 10003KT NCD ///// Q1014
TAF: TAF SVMI 261000Z 2612/2712 08005KT 9999 SCT016 TX33/2618Z TN23/2608Z BECMG 2616/2620 07006KT 9999 SCT270
Voir NOTAMs / SUP AIP / TFR affectant cet aéroport [VIEW]
Fréquences de communication: [VIEW]

Pistes:

Coordonnées de l'aéroport

Adresse: Caraballeda Venezuela

Vue satellite de SVVX